createdAt,value
2023-05-22T00:04:08.151Z,92.5
2023-05-22T00:09:14.366Z,92.5
2023-05-22T00:14:20.586Z,92.5
2023-05-22T00:19:26.824Z,92.5
2023-05-22T00:24:32.982Z,92.5
2023-05-22T00:29:39.196Z,92.5
2023-05-22T00:34:45.438Z,93.0
2023-05-22T00:39:51.622Z,93.0
2023-05-22T00:44:57.823Z,93.0
2023-05-22T00:50:04.047Z,93.5
2023-05-22T00:55:10.252Z,93.5
2023-05-22T01:00:16.470Z,93.5
2023-05-22T01:05:22.670Z,93.5
2023-05-22T01:10:28.869Z,94.0
2023-05-22T01:15:35.084Z,94.0
2023-05-22T01:20:41.611Z,94.0
2023-05-22T01:25:47.499Z,94.0
2023-05-22T01:30:53.697Z,94.0
2023-05-22T01:35:59.916Z,94.0
2023-05-22T01:41:06.137Z,94.0
2023-05-22T01:46:12.351Z,94.5
2023-05-22T01:51:18.525Z,94.5
2023-05-22T01:56:24.737Z,94.5
2023-05-22T02:01:31.023Z,94.5
2023-05-22T02:06:37.157Z,94.5
2023-05-22T02:11:43.363Z,94.5
2023-05-22T02:16:49.570Z,94.5
2023-05-22T02:21:55.774Z,94.5
2023-05-22T02:27:02.000Z,94.5
2023-05-22T02:32:08.211Z,94.5
2023-05-22T02:37:14.412Z,94.5
2023-05-22T02:42:20.628Z,94.5
2023-05-22T02:47:26.868Z,94.5
2023-05-22T02:52:33.052Z,94.5
2023-05-22T02:57:39.238Z,94.5
2023-05-22T03:02:45.541Z,94.5
2023-05-22T03:07:51.670Z,94.5
2023-05-22T03:12:57.863Z,94.5
2023-05-22T03:18:04.128Z,94.5
2023-05-22T03:23:10.278Z,95.0
2023-05-22T03:28:16.493Z,95.0
2023-05-22T03:33:22.756Z,95.0
2023-05-22T03:38:28.918Z,95.0
2023-05-22T03:43:35.121Z,95.0
2023-05-22T03:48:41.336Z,95.0
2023-05-22T03:53:47.566Z,95.0
2023-05-22T03:58:53.752Z,95.5
2023-05-22T04:03:59.960Z,95.5
2023-05-22T04:09:06.155Z,95.5
2023-05-22T04:14:12.375Z,95.5
2023-05-22T04:19:18.637Z,96.0
2023-05-22T04:24:24.783Z,96.0
2023-05-22T04:29:31.001Z,96.0
2023-05-22T04:34:37.208Z,96.0
2023-05-22T04:39:43.409Z,96.0
2023-05-22T04:44:49.612Z,96.5
2023-05-22T04:49:55.834Z,96.5
2023-05-22T04:55:03.202Z,96.5
2023-05-22T05:00:07.262Z,96.5
2023-05-22T05:05:13.474Z,96.5
2023-05-22T05:10:19.675Z,96.5
2023-05-22T05:15:25.880Z,96.5
2023-05-22T05:20:32.105Z,96.5
2023-05-22T05:25:37.318Z,96.5
2023-05-22T05:30:43.533Z,96.5
2023-05-22T05:35:49.738Z,96.5
2023-05-22T05:40:55.947Z,96.5
2023-05-22T05:46:02.276Z,96.5
2023-05-22T05:51:08.369Z,97.0
2023-05-22T05:56:14.580Z,97.0
2023-05-22T06:01:20.776Z,97.0
2023-05-22T06:06:26.984Z,97.0
2023-05-22T06:11:33.216Z,97.0
2023-05-22T06:16:39.443Z,97.0
2023-05-22T06:21:45.616Z,97.0
2023-05-22T06:26:51.825Z,97.5
2023-05-22T06:31:58.089Z,97.5
2023-05-22T06:37:04.245Z,97.5
2023-05-22T06:42:10.447Z,98.0
2023-05-22T06:47:16.657Z,98.0
2023-05-22T06:52:22.867Z,98.0
2023-05-22T06:57:29.167Z,98.0
2023-05-22T07:02:35.319Z,98.0
2023-05-22T07:07:41.495Z,98.0
2023-05-22T07:12:47.705Z,98.0
2023-05-22T07:17:53.944Z,98.0
2023-05-22T07:23:00.149Z,98.0
2023-05-22T07:28:06.314Z,98.0
2023-05-22T07:33:12.781Z,98.0
2023-05-22T07:38:18.741Z,98.5
2023-05-22T07:43:24.996Z,98.5
2023-05-22T07:48:31.177Z,98.5
2023-05-22T07:53:37.365Z,98.0
2023-05-22T07:58:43.579Z,98.5
2023-05-22T08:03:50.001Z,98.0
2023-05-22T08:08:55.987Z,98.0
2023-05-22T08:14:02.212Z,98.5
2023-05-22T08:19:08.509Z,98.5
2023-05-22T08:24:14.610Z,98.0
2023-05-22T08:29:20.819Z,98.0
2023-05-22T08:34:27.050Z,98.0
2023-05-22T08:39:33.244Z,98.0
2023-05-22T08:44:39.445Z,97.5
2023-05-22T08:49:45.649Z,97.5
2023-05-22T08:54:51.866Z,97.0
2023-05-22T08:59:58.077Z,97.0
2023-05-22T09:05:04.310Z,96.5
2023-05-22T09:10:10.493Z,96.5
2023-05-22T09:15:16.724Z,96.0
2023-05-22T09:20:23.005Z,95.5
2023-05-22T09:25:29.121Z,95.0
2023-05-22T09:30:35.343Z,94.5
2023-05-22T09:35:41.541Z,94.0
2023-05-22T09:40:47.753Z,93.5
2023-05-22T09:45:53.974Z,93.0
2023-05-22T09:51:00.270Z,92.5
2023-05-22T09:56:06.378Z,92.0
2023-05-22T10:01:12.609Z,92.0
2023-05-22T10:06:18.817Z,91.5
2023-05-22T10:11:25.012Z,90.5
2023-05-22T10:16:31.261Z,90.0
2023-05-22T10:21:37.443Z,89.5
2023-05-22T10:26:43.632Z,89.0
2023-05-22T10:31:49.849Z,88.5
2023-05-22T10:37:03.055Z,88.0
2023-05-22T10:42:02.277Z,87.5
2023-05-22T10:47:08.492Z,87.0
2023-05-22T10:52:14.713Z,87.0
2023-05-22T10:57:19.933Z,86.5
2023-05-22T11:02:26.259Z,86.0
2023-05-22T11:07:32.364Z,86.0
2023-05-22T11:12:38.584Z,85.0
2023-05-22T11:22:51.033Z,84.0
2023-05-22T11:27:57.245Z,83.0
2023-05-22T11:33:03.517Z,83.0
2023-05-22T11:38:09.676Z,82.5
2023-05-22T11:43:15.898Z,81.5
2023-05-22T11:48:22.333Z,0.0
2023-05-22T11:53:28.546Z,79.5
2023-05-22T11:58:34.785Z,78.5
2023-05-22T12:03:41.064Z,78.0
2023-05-22T12:08:47.257Z,78.5
2023-05-22T12:13:53.410Z,78.5
2023-05-22T12:18:59.694Z,78.5
2023-05-22T12:24:05.896Z,77.0
2023-05-22T12:29:12.077Z,76.5
2023-05-22T12:34:18.306Z,77.0
2023-05-22T12:39:24.511Z,77.0
2023-05-22T12:44:30.767Z,77.5
2023-05-22T12:49:37.000Z,77.0
2023-05-22T12:54:43.206Z,77.0
2023-05-22T12:59:49.399Z,76.5
2023-05-22T13:04:55.656Z,76.5
2023-05-22T13:10:01.854Z,76.0
2023-05-22T13:15:08.058Z,75.0
2023-05-22T13:20:14.289Z,75.5
2023-05-22T13:25:20.506Z,75.5
2023-05-22T13:30:26.720Z,75.0
2023-05-22T13:35:32.932Z,74.5
2023-05-22T13:40:39.172Z,74.5
2023-05-22T13:45:45.412Z,75.0
2023-05-22T13:50:51.628Z,74.0
2023-05-22T13:55:57.847Z,73.5
2023-05-22T14:01:04.094Z,73.0
2023-05-22T14:06:10.279Z,73.5
2023-05-22T14:11:16.511Z,73.5
2023-05-22T14:16:22.781Z,74.0
2023-05-22T14:21:28.921Z,74.0
2023-05-22T14:26:35.150Z,73.0
2023-05-22T14:31:41.360Z,73.0
2023-05-22T14:36:47.591Z,73.0
2023-05-22T14:41:53.826Z,73.5
2023-05-22T14:47:00.030Z,73.0
2023-05-22T14:52:06.262Z,72.5
2023-05-22T14:57:12.482Z,73.0
2023-05-22T15:02:18.680Z,73.5
2023-05-22T15:07:32.370Z,74.0
2023-05-22T15:12:31.138Z,74.0
2023-05-22T15:17:37.535Z,74.0
2023-05-22T15:22:43.581Z,74.0
2023-05-22T15:27:49.785Z,75.0
2023-05-22T15:32:56.004Z,74.0
2023-05-22T15:38:02.226Z,73.0
2023-05-22T15:43:08.436Z,74.0
2023-05-22T15:48:14.686Z,74.0
2023-05-22T15:53:20.853Z,75.0
2023-05-22T15:58:27.064Z,75.5
2023-05-22T16:03:33.441Z,77.0
2023-05-22T16:08:39.503Z,78.0
2023-05-22T16:13:45.697Z,79.0
2023-05-22T16:18:51.941Z,80.5
2023-05-22T16:23:58.124Z,81.5
2023-05-22T16:29:03.345Z,82.5
2023-05-22T16:34:09.546Z,83.5
2023-05-22T16:39:15.771Z,84.5
2023-05-22T16:44:21.968Z,84.5
2023-05-22T16:49:28.177Z,84.5
2023-05-22T16:54:34.377Z,84.5
2023-05-22T16:59:40.594Z,84.5
2023-05-22T17:04:46.799Z,85.5
2023-05-22T17:09:53.023Z,85.5
2023-05-22T17:14:59.228Z,85.5
2023-05-22T17:20:05.426Z,84.5
2023-05-22T17:25:11.639Z,83.5
2023-05-22T17:30:17.853Z,83.0
2023-05-22T17:35:24.083Z,82.0
2023-05-22T17:40:43.271Z,80.5
2023-05-22T17:45:36.477Z,79.5
2023-05-22T17:50:42.886Z,78.5
2023-05-22T17:55:48.891Z,78.5
2023-05-22T18:00:55.105Z,77.5
2023-05-22T18:06:01.325Z,77.5
2023-05-22T18:11:07.522Z,77.0
2023-05-22T18:16:13.817Z,77.0
2023-05-22T18:21:19.941Z,77.0
2023-05-22T18:26:26.140Z,77.0
2023-05-22T18:31:32.379Z,77.0
2023-05-22T18:36:38.566Z,76.5
2023-05-22T18:41:44.771Z,77.0
2023-05-22T18:46:51.088Z,77.0
2023-05-22T18:51:57.214Z,77.0
2023-05-22T18:57:03.404Z,77.0
2023-05-22T19:02:09.610Z,77.0
2023-05-22T19:07:15.815Z,77.5
2023-05-22T19:12:22.031Z,78.0
2023-05-22T19:17:28.299Z,78.5
2023-05-22T19:27:40.663Z,79.0
2023-05-22T19:32:46.948Z,79.5
2023-05-22T19:37:53.089Z,80.0
2023-05-22T19:42:59.284Z,80.5
2023-05-22T19:48:05.585Z,80.5
2023-05-22T19:53:11.709Z,81.0
2023-05-22T19:58:17.911Z,81.5
2023-05-22T20:03:24.250Z,81.5
2023-05-22T20:08:30.325Z,82.0
2023-05-22T20:13:36.566Z,82.5
2023-05-22T20:18:42.754Z,82.5
2023-05-22T20:23:48.967Z,83.0
2023-05-22T20:28:55.163Z,83.5
2023-05-22T20:34:01.378Z,83.5
2023-05-22T20:39:07.582Z,83.5
2023-05-22T20:44:13.788Z,84.0
2023-05-22T20:49:19.988Z,84.5
2023-05-22T20:54:26.201Z,84.5
2023-05-22T20:59:32.421Z,85.0
2023-05-22T21:04:38.618Z,85.0
2023-05-22T21:09:44.826Z,85.5
2023-05-22T21:14:51.037Z,86.0
2023-05-22T21:19:57.252Z,86.0
2023-05-22T21:25:03.451Z,86.5
2023-05-22T21:30:09.663Z,86.5
2023-05-22T21:35:15.874Z,86.5
2023-05-22T21:40:22.100Z,87.0
2023-05-22T21:45:28.295Z,87.5
2023-05-22T21:50:34.504Z,88.0
2023-05-22T21:55:40.704Z,88.5
2023-05-22T22:00:45.921Z,89.0
2023-05-22T22:05:52.139Z,89.5
2023-05-22T22:10:58.373Z,90.0
2023-05-22T22:16:04.577Z,90.0
2023-05-22T22:21:10.753Z,90.5
2023-05-22T22:26:16.958Z,90.5
2023-05-22T22:31:22.238Z,90.5
2023-05-22T22:36:28.420Z,90.5
2023-05-22T22:41:34.617Z,90.5
2023-05-22T22:46:40.951Z,90.0
2023-05-22T22:51:47.045Z,89.5
2023-05-22T22:56:53.246Z,89.5
2023-05-22T23:01:59.467Z,89.5
2023-05-22T23:07:05.671Z,89.5
2023-05-22T23:12:11.872Z,89.5
2023-05-22T23:17:18.071Z,89.5
2023-05-22T23:22:24.285Z,90.0
2023-05-22T23:27:30.489Z,90.0
2023-05-22T23:32:36.744Z,90.5
2023-05-22T23:37:42.906Z,90.5
2023-05-22T23:42:49.290Z,90.5
2023-05-22T23:47:55.359Z,90.5
2023-05-22T23:53:01.536Z,90.5
2023-05-22T23:58:07.732Z,90.5
